Time;durP1;ratioP1;P1;durP2;ratioP2;P2;SDS_P1;SDS_P2;PMS_P1;PMS_P2;Temp;Humidity;BMP_temperature;BMP_pressure;BME280_temperature;BME280_humidity;BME280_pressure;Samples;Min_cycle;Max_cycle;Signal;HPM_P1;HPM_P2
2022/05/05 00:00:53;;;;;;;69.13;38.67;;;14.50;99.90;;;;;;5053591;28;20029;-77
2022/05/05 00:03:20;;;;;;;65.78;38.35;;;14.70;99.90;;;;;;5035256;28;20104;-77
2022/05/05 00:05:45;;;;;;;57.53;37.33;;;14.90;99.90;;;;;;5052994;28;20044;-77
2022/05/05 00:08:11;;;;;;;67.93;38.13;;;14.90;99.90;;;;;;5053326;28;20029;-76
2022/05/05 00:16:07;;;;;;;57.70;37.72;;;14.80;99.90;;;;;;5053312;28;20108;-76
2022/05/05 00:18:33;;;;;;;56.08;34.90;;;14.80;99.90;;;;;;5052928;28;20071;-77
2022/05/05 00:20:59;;;;;;;65.47;37.50;;;14.80;99.90;;;;;;5053190;28;20056;-76
2022/05/05 00:23:24;;;;;;;61.25;32.60;;;14.60;99.90;;;;;;5053029;28;20108;-78
2022/05/05 00:25:50;;;;;;;42.90;28.60;;;14.60;99.90;;;;;;5053068;28;20473;-78
2022/05/05 00:28:16;;;;;;;46.17;30.70;;;14.60;99.90;;;;;;5052897;28;20055;-78
2022/05/05 00:30:42;;;;;;;42.63;29.08;;;14.50;99.90;;;;;;5053229;28;20021;-78
2022/05/05 00:33:07;;;;;;;48.17;29.70;;;14.40;99.90;;;;;;5052735;28;20025;-78
2022/05/05 00:35:33;;;;;;;55.70;30.58;;;14.40;99.90;;;;;;5035038;28;20047;-77
2022/05/05 00:37:59;;;;;;;53.67;32.85;;;14.20;99.90;;;;;;5053100;28;20069;-77
2022/05/05 00:40:25;;;;;;;48.88;32.47;;;14.40;99.90;;;;;;5052594;28;20082;-78
2022/05/05 00:42:51;;;;;;;54.42;34.00;;;14.40;99.90;;;;;;5053031;28;20017;-78
2022/05/05 00:45:16;;;;;;;55.22;35.15;;;14.20;99.90;;;;;;5052756;28;20367;-77
2022/05/05 00:47:43;;;;;;;49.53;33.58;;;14.10;99.90;;;;;;5034453;28;20052;-78
2022/05/05 00:50:11;;;;;;;55.15;35.45;;;14.20;99.90;;;;;;5052871;28;20056;-78
2022/05/05 00:52:37;;;;;;;53.67;33.95;;;14.30;99.90;;;;;;5052745;28;20466;-77
2022/05/05 00:55:03;;;;;;;55.42;33.33;;;14.40;99.90;;;;;;5052689;28;20036;-77
2022/05/05 00:57:30;;;;;;;51.30;33.38;;;14.30;99.90;;;;;;5053073;28;20377;-79
2022/05/05 00:59:59;;;;;;;54.03;31.98;;;14.30;99.90;;;;;;5052532;28;20028;-77
2022/05/05 01:02:24;;;;;;;56.08;35.15;;;14.40;99.90;;;;;;5051050;28;20029;-77
2022/05/05 01:04:50;;;;;;;51.00;32.80;;;14.50;99.90;;;;;;5052420;28;20032;-78
2022/05/05 01:07:17;;;;;;;52.60;33.55;;;14.50;99.90;;;;;;5052587;28;20041;-77
2022/05/05 01:09:44;;;;;;;57.35;34.00;;;14.40;99.90;;;;;;5052447;28;20037;-77
2022/05/05 01:12:10;;;;;;;56.05;33.28;;;14.50;99.90;;;;;;5052701;28;20027;-77
2022/05/05 01:14:36;;;;;;;74.50;34.33;;;14.50;99.90;;;;;;5052439;28;20071;-78
2022/05/05 01:17:02;;;;;;;55.88;34.28;;;14.50;99.90;;;;;;5052388;28;20381;-78
2022/05/05 01:19:28;;;;;;;52.25;33.67;;;14.60;99.90;;;;;;5052723;28;20082;-77
2022/05/05 01:21:57;;;;;;;58.08;34.30;;;14.60;99.90;;;;;;5034455;28;20029;-78
2022/05/05 01:28:10;;;;;;;52.25;35.00;;;14.70;99.90;;;;;;5052446;28;20037;-78
2022/05/05 01:29:55;;;;;;;54.40;34.75;;;14.60;99.90;;;;;;5052310;28;20123;-79
2022/05/05 01:32:21;;;;;;;57.25;35.30;;;14.70;99.90;;;;;;5052264;28;20516;-78
2022/05/05 01:34:47;;;;;;;59.70;37.05;;;14.60;99.90;;;;;;5052000;28;20047;-78
2022/05/05 01:37:13;;;;;;;57.03;37.03;;;14.50;99.90;;;;;;5052486;28;20041;-78
2022/05/05 01:39:39;;;;;;;59.28;36.05;;;14.30;99.90;;;;;;5052401;28;20468;-79
2022/05/05 01:42:05;;;;;;;54.28;35.20;;;14.40;99.90;;;;;;5055241;28;20075;-79
2022/05/05 01:44:31;;;;;;;61.05;35.58;;;14.40;99.90;;;;;;5056096;28;20032;-78
2022/05/05 01:46:56;;;;;;;58.60;36.65;;;14.30;99.90;;;;;;5055607;28;20405;-78
2022/05/05 01:49:22;;;;;;;62.70;37.97;;;14.30;99.90;;;;;;5038337;28;20533;-78
2022/05/05 01:51:48;;;;;;;60.25;36.47;;;14.50;99.90;;;;;;5055925;28;20092;-78
2022/05/05 01:54:14;;;;;;;52.35;35.10;;;14.60;99.90;;;;;;5056031;28;20159;-76
2022/05/05 01:56:40;;;;;;;55.35;36.00;;;14.70;99.90;;;;;;5055861;28;20111;-78
2022/05/05 01:59:06;;;;;;;64.97;38.17;;;14.40;99.90;;;;;;5021692;28;20033;-78
2022/05/05 02:01:33;;;;;;;60.85;36.03;;;14.40;99.90;;;;;;5037571;28;20481;-77
2022/05/05 02:04:00;;;;;;;64.97;38.40;;;14.30;99.90;;;;;;5055673;28;20383;-78
2022/05/05 02:06:27;;;;;;;54.15;36.05;;;14.10;99.90;;;;;;5037857;28;20037;-78
2022/05/05 02:08:53;;;;;;;53.92;34.55;;;13.90;99.90;;;;;;5055650;28;20159;-78
2022/05/05 02:11:19;;;;;;;60.72;36.45;;;13.90;99.90;;;;;;5055593;28;20029;-78
2022/05/05 02:13:44;;;;;;;60.45;36.28;;;13.90;99.90;;;;;;5055669;28;20354;-78
2022/05/05 02:16:10;;;;;;;55.50;33.47;;;14.20;99.90;;;;;;5055125;28;20021;-78
2022/05/05 02:18:36;;;;;;;55.92;33.97;;;13.90;99.90;;;;;;5055367;28;20037;-78
2022/05/05 02:21:02;;;;;;;55.25;34.28;;;13.80;99.90;;;;;;5055523;28;20029;-77
2022/05/05 02:23:28;;;;;;;53.65;34.28;;;13.90;99.90;;;;;;5055557;28;20021;-78
2022/05/05 02:25:53;;;;;;;59.92;35.17;;;13.80;99.90;;;;;;5055266;28;20044;-77
2022/05/05 02:28:19;;;;;;;51.22;33.40;;;14.00;99.90;;;;;;5055460;28;20024;-78
2022/05/05 02:30:45;;;;;;;56.65;32.78;;;14.10;99.90;;;;;;5054769;28;20087;-78
2022/05/05 02:33:11;;;;;;;62.20;34.95;;;13.60;99.90;;;;;;5047136;28;20030;-78
2022/05/05 02:35:37;;;;;;;51.35;32.22;;;13.50;99.90;;;;;;5035586;28;20151;-78
2022/05/05 02:40:47;;;;;;;47.50;31.80;;;13.70;99.90;;;;;;5035144;28;20028;-77
2022/05/05 02:43:13;;;;;;;54.72;32.85;;;13.40;99.90;;;;;;5035155;28;20030;-77
2022/05/05 02:45:39;;;;;;;55.40;32.70;;;13.30;99.90;;;;;;5034700;28;20129;-77
2022/05/05 02:48:05;;;;;;;51.20;30.98;;;13.40;99.90;;;;;;5052212;28;20029;-78
2022/05/05 02:50:31;;;;;;;43.63;28.83;;;13.50;99.90;;;;;;5054964;28;20381;-79
2022/05/05 02:52:57;;;;;;;46.00;29.00;;;13.60;99.90;;;;;;5054623;28;20044;-78
2022/05/05 02:55:23;;;;;;;45.25;29.25;;;13.60;99.90;;;;;;5055021;28;20485;-78
2022/05/05 02:57:50;;;;;;;48.58;28.77;;;13.70;99.90;;;;;;5054720;28;20032;-77
2022/05/05 03:00:16;;;;;;;49.55;29.60;;;13.40;99.90;;;;;;5054357;28;20025;-77
2022/05/05 03:02:44;;;;;;;45.10;28.17;;;13.60;99.90;;;;;;5054485;28;20384;-77
2022/05/05 03:05:11;;;;;;;46.42;29.75;;;13.50;99.90;;;;;;5054329;28;20555;-78
2022/05/05 03:07:37;;;;;;;44.95;27.23;;;13.50;99.90;;;;;;5054633;28;20068;-78
2022/05/05 03:10:04;;;;;;;43.75;26.92;;;13.80;99.90;;;;;;5054363;28;20104;-78
2022/05/05 03:12:30;;;;;;;47.40;27.80;;;13.70;99.90;;;;;;5054059;28;20079;-77
2022/05/05 03:14:56;;;;;;;44.25;26.88;;;13.80;99.90;;;;;;5036419;28;20025;-76
2022/05/05 03:17:21;;;;;;;43.35;27.65;;;13.70;99.90;;;;;;5054365;28;20028;-78
2022/05/05 03:19:47;;;;;;;45.17;26.52;;;13.70;99.90;;;;;;5054366;28;20558;-77
2022/05/05 03:22:13;;;;;;;46.33;26.00;;;13.70;99.90;;;;;;5054229;28;20033;-76
2022/05/05 03:24:38;;;;;;;43.47;25.25;;;13.50;99.90;;;;;;5054190;28;20089;-78
2022/05/05 03:27:04;;;;;;;41.78;26.15;;;13.40;99.90;;;;;;5053925;28;20075;-78
2022/05/05 03:29:32;;;;;;;41.75;24.08;;;13.50;99.90;;;;;;5054246;28;20070;-76
2022/05/05 03:31:58;;;;;;;40.22;24.35;;;13.50;99.90;;;;;;5036341;28;20037;-77
2022/05/05 03:34:24;;;;;;;40.25;24.55;;;13.60;99.90;;;;;;5036163;28;20159;-77
2022/05/05 03:36:49;;;;;;;43.60;25.02;;;13.60;99.90;;;;;;5053971;28;20077;-76
2022/05/05 03:39:15;;;;;;;42.35;25.00;;;13.50;99.90;;;;;;5053815;28;20036;-76
2022/05/05 03:41:41;;;;;;;38.72;24.70;;;13.60;99.90;;;;;;5053660;28;20023;-78
2022/05/05 03:44:07;;;;;;;41.30;25.38;;;13.60;99.90;;;;;;5064708;28;20035;-77
2022/05/05 03:46:33;;;;;;;44.28;24.58;;;13.50;99.90;;;;;;5069026;28;20116;-77
2022/05/05 03:48:59;;;;;;;38.40;22.13;;;13.30;99.90;;;;;;5035613;28;20099;-78
2022/05/05 03:51:25;;;;;;;37.05;22.52;;;13.20;99.90;;;;;;5053869;28;20469;-78
2022/05/05 03:53:54;;;;;;;40.88;22.58;;;13.40;99.90;;;;;;5053680;28;20017;-75
2022/05/05 03:56:20;;;;;;;43.28;21.70;;;13.50;99.90;;;;;;5053507;28;20036;-77
2022/05/05 03:58:45;;;;;;;45.17;21.15;;;13.60;99.90;;;;;;5053371;28;20040;-77
2022/05/05 04:01:11;;;;;;;37.20;20.13;;;13.80;99.90;;;;;;5053688;28;20025;-78
2022/05/05 04:03:43;;;;;;;40.90;22.63;;;13.70;99.90;;;;;;5052738;28;20021;-77
2022/05/05 04:06:09;;;;;;;32.47;21.30;;;13.70;99.90;;;;;;5053433;28;20083;-77
2022/05/05 04:08:37;;;;;;;38.00;20.88;;;13.90;99.90;;;;;;5053291;28;20180;-78
2022/05/05 04:11:04;;;;;;;30.90;19.73;;;13.90;99.90;;;;;;5054064;28;20044;-77
2022/05/05 04:13:30;;;;;;;30.65;19.17;;;13.70;99.90;;;;;;5035590;28;20384;-78
2022/05/05 04:15:55;;;;;;;38.67;20.50;;;13.50;99.90;;;;;;5035351;28;20025;-78
2022/05/05 04:18:21;;;;;;;39.60;21.73;;;13.70;99.90;;;;;;5035325;28;20033;-78
2022/05/05 04:20:47;;;;;;;32.33;19.98;;;13.50;99.90;;;;;;5053134;28;20365;-78
2022/05/05 04:23:13;;;;;;;34.85;20.10;;;13.50;99.90;;;;;;5053065;28;20163;-78
2022/05/05 04:25:44;;;;;;;35.60;21.23;;;13.30;99.90;;;;;;5052831;28;20049;-78
2022/05/05 04:28:11;;;;;;;33.25;20.42;;;13.00;99.90;;;;;;5035218;28;20612;-78
2022/05/05 04:30:40;;;;;;;39.63;21.50;;;13.00;99.90;;;;;;5052966;28;20021;-78
2022/05/05 04:33:08;;;;;;;31.05;19.38;;;13.20;99.90;;;;;;5053022;28;20025;-78
2022/05/05 04:35:37;;;;;;;33.00;21.00;;;13.20;99.90;;;;;;5035208;28;20069;-79
2022/05/05 04:38:04;;;;;;;35.83;21.17;;;13.30;99.90;;;;;;5052947;28;20065;-79
2022/05/05 04:40:30;;;;;;;31.02;19.23;;;13.30;99.90;;;;;;5052604;28;20115;-79
2022/05/05 04:42:56;;;;;;;35.38;20.60;;;13.00;99.90;;;;;;5035149;28;20773;-78
2022/05/05 04:45:22;;;;;;;32.65;20.25;;;12.80;99.90;;;;;;5052808;28;20108;-78
2022/05/05 04:47:48;;;;;;;39.40;20.98;;;12.90;99.90;;;;;;5052728;28;20021;-77
2022/05/05 04:50:14;;;;;;;38.22;20.83;;;13.10;99.90;;;;;;5034848;28;20473;-77
2022/05/05 04:52:40;;;;;;;35.80;21.73;;;13.10;99.90;;;;;;5052671;28;20442;-78
2022/05/05 04:55:06;;;;;;;33.58;20.42;;;13.40;99.90;;;;;;5052478;28;20044;-79
2022/05/05 04:57:32;;;;;;;42.38;21.13;;;13.60;99.90;;;;;;5052822;28;20053;-78
2022/05/05 04:59:59;;;;;;;36.70;20.92;;;13.50;99.90;;;;;;5052598;28;20041;-78
2022/05/05 05:02:24;;;;;;;37.78;21.45;;;13.30;99.90;;;;;;5052544;28;20090;-75
2022/05/05 05:04:50;;;;;;;35.75;21.85;;;13.30;99.90;;;;;;5052287;28;20025;-78
2022/05/05 05:07:16;;;;;;;35.08;20.75;;;13.50;99.90;;;;;;5052551;28;20405;-77
2022/05/05 05:09:42;;;;;;;40.45;21.58;;;13.60;99.90;;;;;;5052319;28;20021;-78
2022/05/05 05:12:08;;;;;;;34.95;19.98;;;13.30;99.90;;;;;;5052570;28;20060;-78
2022/05/05 05:14:34;;;;;;;33.97;21.25;;;13.00;99.90;;;;;;5052516;28;20033;-78
2022/05/05 05:17:00;;;;;;;42.13;21.35;;;13.20;99.90;;;;;;5055474;28;20599;-77
2022/05/05 05:19:27;;;;;;;34.13;21.05;;;13.30;99.90;;;;;;5056679;28;20033;-78
2022/05/05 05:21:53;;;;;;;38.17;21.00;;;13.50;99.90;;;;;;5056520;28;20029;-78
2022/05/05 05:24:19;;;;;;;33.20;22.17;;;13.50;99.90;;;;;;5056147;28;20631;-76
2022/05/05 05:26:45;;;;;;;34.13;21.75;;;13.70;99.90;;;;;;5056447;28;20040;-76
2022/05/05 05:29:11;;;;;;;35.00;20.63;;;13.90;99.90;;;;;;5038734;28;20084;-78
2022/05/05 05:31:37;;;;;;;41.63;22.67;;;13.40;99.90;;;;;;5056579;28;20021;-78
2022/05/05 05:34:03;;;;;;;43.92;24.23;;;13.50;99.90;;;;;;5056342;28;20025;-78
2022/05/05 05:36:28;;;;;;;37.45;23.35;;;13.40;99.90;;;;;;5038153;28;20480;-76
2022/05/05 05:38:54;;;;;;;44.22;23.25;;;13.50;99.90;;;;;;5055952;28;20037;-76
2022/05/05 05:41:20;;;;;;;39.92;23.55;;;13.30;99.90;;;;;;5056221;28;20036;-78
2022/05/05 05:43:46;;;;;;;45.97;23.60;;;13.40;99.90;;;;;;5056082;28;20039;-74
2022/05/05 05:46:12;;;;;;;49.08;26.77;;;13.10;99.90;;;;;;5055819;28;20041;-78
2022/05/05 05:48:38;;;;;;;46.38;27.38;;;13.30;99.90;;;;;;5055977;28;20052;-78
2022/05/05 05:51:06;;;;;;;45.58;29.40;;;13.70;99.90;;;;;;5021561;28;20028;-77
2022/05/05 05:53:32;;;;;;;51.00;30.73;;;13.70;99.90;;;;;;5055778;28;20091;-78
2022/05/05 05:55:58;;;;;;;55.10;29.77;;;13.70;99.90;;;;;;5038125;28;20025;-78
2022/05/05 05:58:24;;;;;;;57.47;30.63;;;13.50;99.90;;;;;;5055710;28;20120;-77
2022/05/05 06:00:50;;;;;;;45.70;29.10;;;13.50;99.90;;;;;;5055607;28;20104;-79
2022/05/05 06:06:01;;;;;;;57.85;31.48;;;13.60;99.90;;;;;;5055311;28;20397;-76
2022/05/05 06:08:27;;;;;;;53.13;31.90;;;13.90;99.90;;;;;;5055587;28;20442;-78
2022/05/05 06:10:53;;;;;;;56.80;33.38;;;13.90;99.90;;;;;;5055259;28;20037;-77
2022/05/05 06:13:18;;;;;;;57.47;32.80;;;13.70;99.90;;;;;;5055629;28;20052;-78
2022/05/05 06:15:44;;;;;;;52.92;32.03;;;13.60;99.90;;;;;;5055581;28;20032;-79
2022/05/05 06:18:10;;;;;;;54.63;30.90;;;13.60;99.90;;;;;;5055556;28;20020;-78
2022/05/05 06:20:36;;;;;;;53.30;32.17;;;13.90;99.90;;;;;;5055329;28;20021;-78
2022/05/05 06:23:01;;;;;;;53.42;31.98;;;13.90;99.90;;;;;;5046940;28;20597;-74
2022/05/05 06:25:27;;;;;;;56.65;34.47;;;13.70;99.90;;;;;;5037631;28;20089;-75
2022/05/05 06:27:57;;;;;;;52.20;31.52;;;13.80;99.90;;;;;;5060572;28;20032;-77
2022/05/05 06:30:23;;;;;;;51.72;31.92;;;13.70;99.90;;;;;;5064888;28;20100;-77
2022/05/05 06:32:48;;;;;;;58.58;33.30;;;13.70;99.90;;;;;;5046502;28;20044;-77
2022/05/05 06:35:14;;;;;;;62.00;33.53;;;14.00;99.90;;;;;;5056424;28;20029;-75
2022/05/05 06:37:40;;;;;;;55.88;33.00;;;14.30;99.90;;;;;;5040770;28;20033;-77
2022/05/05 06:40:08;;;;;;;54.80;32.47;;;14.20;99.90;;;;;;5054395;28;20032;-78
2022/05/05 06:42:34;;;;;;;55.97;32.20;;;14.20;99.90;;;;;;5042225;28;20037;-78
2022/05/05 06:45:00;;;;;;;48.75;31.40;;;14.60;99.90;;;;;;5032210;28;20064;-79
2022/05/05 06:47:26;;;;;;;47.28;30.02;;;14.40;99.90;;;;;;5061552;28;20056;-78
2022/05/05 06:49:51;;;;;;;50.50;30.27;;;14.00;99.90;;;;;;5048072;28;20022;-78
2022/05/05 06:52:17;;;;;;;59.55;31.23;;;13.80;99.90;;;;;;5043354;28;20454;-77
2022/05/05 06:54:43;;;;;;;64.30;31.75;;;13.80;99.90;;;;;;5040827;28;20030;-77
2022/05/05 06:57:09;;;;;;;50.17;31.23;;;14.00;99.90;;;;;;5041468;28;20053;-74
2022/05/05 06:59:35;;;;;;;48.53;29.83;;;14.10;99.90;;;;;;5036219;28;20442;-77
2022/05/05 07:02:02;;;;;;;49.50;30.38;;;14.10;99.90;;;;;;5046362;28;20064;-77
2022/05/05 07:07:15;;;;;;;54.70;31.58;;;14.50;99.90;;;;;;5026422;28;20457;-77
2022/05/05 07:12:26;;;;;;;51.35;31.48;;;15.20;99.90;;;;;;5037426;28;20052;-77
2022/05/05 07:14:52;;;;;;;52.88;28.83;;;14.90;99.90;;;;;;5055334;28;20033;-79
2022/05/05 07:17:18;;;;;;;43.70;27.85;;;15.20;99.90;;;;;;5055079;28;20385;-80
2022/05/05 07:19:44;;;;;;;44.72;28.30;;;14.80;99.90;;;;;;5053942;28;20051;-79
2022/05/05 07:22:10;;;;;;;50.20;27.70;;;14.80;99.90;;;;;;5054356;28;20493;-78
2022/05/05 07:24:36;;;;;;;49.33;28.10;;;15.20;99.90;;;;;;5052068;28;20029;-78
2022/05/05 07:27:03;;;;;;;40.55;24.48;;;15.20;99.90;;;;;;5053518;28;20029;-77
2022/05/05 07:29:29;;;;;;;46.25;26.15;;;14.70;99.90;;;;;;5054228;28;20033;-78
2022/05/05 07:31:56;;;;;;;33.70;22.30;;;15.00;99.90;;;;;;5054100;28;20029;-78
2022/05/05 07:34:22;;;;;;;35.45;22.88;;;15.30;99.90;;;;;;5053627;28;20082;-78
2022/05/05 07:36:49;;;;;;;35.85;24.77;;;15.20;99.90;;;;;;5057982;28;20131;-78
2022/05/05 07:39:15;;;;;;;41.97;25.40;;;15.40;99.90;;;;;;5054978;28;20119;-77
2022/05/05 07:41:41;;;;;;;29.70;22.15;;;15.10;99.90;;;;;;5074021;28;20020;-77
2022/05/05 07:44:08;;;;;;;30.33;21.27;;;15.20;99.90;;;;;;5073719;28;20033;-78
2022/05/05 07:46:34;;;;;;;35.90;22.85;;;15.20;99.90;;;;;;5068914;28;20032;-77
2022/05/05 07:49:01;;;;;;;33.00;22.50;;;14.70;99.90;;;;;;5053370;28;20029;-77
2022/05/05 07:51:28;;;;;;;35.10;22.45;;;14.70;99.90;;;;;;5053728;28;20029;-77
2022/05/05 07:56:40;;;;;;;29.80;21.02;;;14.90;99.90;;;;;;5053684;28;20481;-77
2022/05/05 07:59:07;;;;;;;32.83;20.00;;;15.30;99.90;;;;;;5053686;28;20107;-77
2022/05/05 08:01:33;;;;;;;32.00;20.85;;;15.40;99.90;;;;;;5053517;28;20174;-77
2022/05/05 08:03:59;;;;;;;33.55;21.45;;;15.20;99.90;;;;;;5052922;28;20025;-76
2022/05/05 08:06:25;;;;;;;27.75;19.25;;;15.20;99.90;;;;;;5035375;28;20382;-77
2022/05/05 08:08:50;;;;;;;29.17;19.73;;;15.80;99.90;;;;;;5053327;28;20116;-77
2022/05/05 08:11:17;;;;;;;29.90;21.38;;;15.70;99.90;;;;;;5053374;28;20086;-77
2022/05/05 08:13:43;;;;;;;30.35;22.17;;;16.30;99.90;;;;;;5035583;28;20420;-77
2022/05/05 08:16:08;;;;;;;28.27;20.38;;;16.60;99.90;;;;;;5053259;28;20027;-77
2022/05/05 08:18:38;;;;;;;33.28;22.25;;;16.20;99.90;;;;;;5052940;28;20040;-77
2022/05/05 08:21:05;;;;;;;32.70;23.17;;;15.50;99.90;;;;;;5035276;28;20163;-77
2022/05/05 08:23:31;;;;;;;41.50;23.75;;;16.00;99.90;;;;;;5035187;28;20047;-77
2022/05/05 08:28:41;;;;;;;36.42;22.27;;;16.10;99.90;;;;;;5035028;28;20063;-77
2022/05/05 08:31:10;;;;;;;32.45;22.13;;;16.30;99.90;;;;;;5053078;28;20032;-76
2022/05/05 08:33:38;;;;;;;33.85;21.02;;;16.10;99.90;;;;;;5052587;28;20512;-77
2022/05/05 08:36:05;;;;;;;34.67;21.25;;;16.70;99.90;;;;;;5053170;28;20523;-78
2022/05/05 08:38:32;;;;;;;29.02;20.65;;;16.50;99.90;;;;;;5052963;28;20385;-78
2022/05/05 08:40:58;;;;;;;31.58;19.80;;;16.80;99.90;;;;;;5035183;28;20029;-77
2022/05/05 08:43:24;;;;;;;29.80;21.00;;;16.90;99.90;;;;;;5052929;28;20029;-77
2022/05/05 08:45:53;;;;;;;36.38;21.58;;;17.30;99.90;;;;;;5062822;28;20064;-77
2022/05/05 08:48:19;;;;;;;36.55;20.52;;;17.30;99.90;;;;;;5035383;28;20021;-78
2022/05/05 08:50:51;;;;;;;31.25;20.67;;;17.30;99.90;;;;;;5034605;28;20108;-77
2022/05/05 08:53:19;;;;;;;;;;;18.00;99.90;;;;;;5053124;28;20489;-77
2022/05/05 08:55:45;;;;;;;29.70;17.00;;;18.10;99.90;;;;;;5018477;28;20372;-77
2022/05/05 08:58:12;;;;;;;26.88;17.95;;;17.30;99.90;;;;;;5051413;28;20029;-77
2022/05/05 09:00:38;;;;;;;25.10;19.02;;;17.50;99.90;;;;;;5052233;28;20485;-77
2022/05/05 09:03:09;;;;;;;29.30;18.48;;;17.50;99.90;;;;;;5052369;28;20024;-78
2022/05/05 09:05:43;;;;;;;29.63;18.50;;;16.90;99.90;;;;;;5052420;28;20032;-78
2022/05/05 09:08:12;;;;;;;25.77;19.45;;;17.70;99.90;;;;;;5052646;28;20029;-78
2022/05/05 09:10:50;;;;;;;32.08;19.25;;;18.20;99.90;;;;;;5052661;28;20021;-78
2022/05/05 09:13:27;;;;;;;27.55;19.85;;;18.00;99.90;;;;;;5052528;28;20064;-78
2022/05/05 09:15:53;;;;;;;24.20;17.13;;;18.20;99.90;;;;;;5052108;28;20036;-77
2022/05/05 09:18:21;;;;;;;26.30;16.92;;;18.10;99.90;;;;;;5034756;28;20036;-76
2022/05/05 09:20:49;;;;;;;28.65;17.60;;;17.50;99.90;;;;;;5034669;28;20025;-77
2022/05/05 09:23:31;;;;;;;23.85;17.10;;;17.40;99.90;;;;;;5052430;28;20079;-77
2022/05/05 09:25:58;;;;;;;25.33;16.17;;;17.80;99.90;;;;;;5052268;28;20049;-77
2022/05/05 09:28:35;;;;;;;24.02;17.30;;;18.00;99.90;;;;;;5052687;28;20377;-77
2022/05/05 09:31:03;;;;;;;22.27;16.77;;;18.10;99.90;;;;;;5052221;28;20061;-78
2022/05/05 09:33:36;;;;;;;26.05;16.73;;;17.90;99.90;;;;;;5052574;28;20473;-77
2022/05/05 09:36:04;;;;;;;25.95;20.30;;;17.40;99.90;;;;;;5052669;28;20065;-77
2022/05/05 09:39:00;;;;;;;27.05;16.77;;;17.50;99.90;;;;;;5034567;28;20478;-77
2022/05/05 09:41:33;;;;;;;25.30;16.67;;;18.30;99.90;;;;;;5052164;28;20155;-78
2022/05/05 09:44:11;;;;;;;27.50;16.63;;;18.40;99.90;;;;;;5052187;28;20057;-77
2022/05/05 09:46:36;;;;;;;24.60;16.30;;;18.90;99.90;;;;;;5051847;28;20037;-78
2022/05/05 09:49:07;;;;;;;20.92;15.68;;;19.00;99.90;;;;;;5034569;28;20169;-77
2022/05/05 09:51:37;;;;;;;18.20;13.88;;;18.60;99.90;;;;;;5052530;28;20041;-76
2022/05/05 09:59:41;;;;;;;20.42;15.55;;;18.50;99.90;;;;;;5052319;28;20477;-78
2022/05/05 10:05:17;;;;;;;29.35;19.55;;;18.10;99.90;;;;;;5035397;28;20040;-77
2022/05/05 10:07:45;;;;;;;27.95;19.48;;;18.10;99.90;;;;;;5035916;28;20050;-78
2022/05/05 10:10:14;;;;;;;29.30;17.05;;;18.40;99.90;;;;;;5035772;28;20424;-78
2022/05/05 10:12:41;;;;;;;21.63;14.88;;;18.90;99.90;;;;;;5035649;28;20470;-77
2022/05/05 10:15:07;;;;;;;23.52;15.77;;;18.50;99.90;;;;;;5035379;28;20033;-77
2022/05/05 10:17:35;;;;;;;20.05;15.57;;;18.50;99.90;;;;;;5035605;28;20034;-78
2022/05/05 10:20:02;;;;;;;21.98;15.90;;;18.60;99.90;;;;;;5017978;28;20034;-77
2022/05/05 10:23:09;;;;;;;22.02;14.35;;;19.10;99.90;;;;;;5035411;28;20034;-77
2022/05/05 10:25:37;;;;;;;19.42;13.38;;;19.80;99.90;;;;;;5018217;28;20132;-78
2022/05/05 10:28:23;;;;;;;24.75;14.52;;;20.00;99.90;;;;;;5035088;28;20183;-78
2022/05/05 10:30:49;;;;;;;19.02;14.02;;;19.50;99.90;;;;;;5035388;28;20086;-78
2022/05/05 10:33:15;;;;;;;27.42;14.77;;;19.30;99.90;;;;;;5035315;28;20104;-77
2022/05/05 10:35:48;;;;;;;19.52;14.25;;;19.10;99.90;;;;;;5035654;28;20112;-78
2022/05/05 10:38:40;;;;;;;22.73;15.40;;;19.80;99.90;;;;;;5035095;28;20029;-77
2022/05/05 10:41:37;;;;;;;20.25;14.85;;;20.00;99.90;;;;;;5035365;28;20045;-78
2022/05/05 10:44:18;;;;;;;21.13;14.05;;;19.40;99.90;;;;;;5035037;28;20029;-78
2022/05/05 10:46:57;;;;;;;22.40;15.88;;;19.90;99.90;;;;;;5040833;28;20045;-78
2022/05/05 10:49:39;;;;;;;20.35;15.25;;;20.80;99.90;;;;;;5054976;28;20039;-78
2022/05/05 10:52:11;;;;;;;20.15;14.27;;;20.40;99.10;;;;;;5054782;28;20051;-78
2022/05/05 10:54:42;;;;;;;22.58;14.80;;;20.10;99.90;;;;;;5055085;28;20029;-78
2022/05/05 10:57:26;;;;;;;30.13;15.05;;;20.80;98.60;;;;;;5054473;28;20044;-78
2022/05/05 11:00:20;;;;;;;20.27;13.68;;;21.30;99.20;;;;;;5054744;28;20025;-78
2022/05/05 11:02:58;;;;;;;19.60;13.65;;;22.20;97.40;;;;;;5063897;28;20032;-78
2022/05/05 11:05:27;;;;;;;19.27;13.90;;;21.90;96.50;;;;;;5054466;28;20036;-78
2022/05/05 11:08:19;;;;;;;21.67;15.05;;;21.60;96.70;;;;;;5054601;28;20559;-78
2022/05/05 11:13:46;;;;;;;22.23;14.95;;;20.20;98.20;;;;;;5053189;28;20036;-78
2022/05/05 11:22:15;;;;;;;21.05;14.82;;;19.80;99.90;;;;;;5054365;28;20037;-78
2022/05/05 11:24:49;;;;;;;21.15;13.48;;;19.10;99.90;;;;;;5054659;28;20036;-78
2022/05/05 11:27:22;;;;;;;20.17;14.77;;;19.10;99.90;;;;;;5035887;28;20041;-77
2022/05/05 11:29:57;;;;;;;21.23;14.50;;;18.90;99.90;;;;;;5054315;28;20043;-75
2022/05/05 11:32:33;;;;;;;19.13;14.20;;;18.90;99.90;;;;;;5053940;28;20508;-74
2022/05/05 11:35:00;;;;;;;17.42;12.88;;;19.40;99.90;;;;;;5054017;28;20021;-74
2022/05/05 11:37:27;;;;;;;16.95;12.95;;;19.80;99.90;;;;;;5054076;28;20041;-73
2022/05/05 11:39:52;;;;;;;20.67;13.32;;;19.30;99.90;;;;;;5053991;28;20546;-74
2022/05/05 11:42:19;;;;;;;23.02;13.75;;;19.70;99.90;;;;;;5035676;28;20060;-73
2022/05/05 11:44:46;;;;;;;20.77;12.63;;;19.50;99.90;;;;;;5053766;28;20021;-74
2022/05/05 11:47:12;;;;;;;20.10;13.40;;;20.00;99.40;;;;;;5053864;28;20041;-73
2022/05/05 11:49:40;;;;;;;21.65;14.25;;;20.30;99.30;;;;;;5053690;28;20085;-74
2022/05/05 11:52:06;;;;;;;21.33;14.27;;;20.30;98.80;;;;;;5054040;28;20428;-74
2022/05/05 11:54:34;;;;;;;19.75;13.15;;;20.10;98.50;;;;;;5053468;28;20025;-73
2022/05/05 11:57:00;;;;;;;23.50;14.27;;;20.60;97.70;;;;;;5043229;28;20060;-74
2022/05/05 12:02:13;;;;;;;23.90;15.18;;;20.20;99.10;;;;;;5051754;28;20025;-73
2022/05/05 12:04:42;;;;;;;26.70;15.90;;;20.70;98.80;;;;;;5052128;28;20044;-73
2022/05/05 12:07:11;;;;;;;23.45;15.93;;;20.40;99.00;;;;;;5052069;28;20123;-74
2022/05/05 12:09:38;;;;;;;28.15;16.00;;;20.20;99.80;;;;;;5027255;28;20026;-74
2022/05/05 12:12:16;;;;;;;22.50;15.68;;;20.10;99.90;;;;;;5047173;28;20031;-74
2022/05/05 12:14:44;;;;;;;25.50;15.95;;;20.20;99.90;;;;;;5052331;28;20484;-73
2022/05/05 12:17:18;;;;;;;24.75;15.38;;;20.40;99.40;;;;;;5036067;28;20025;-74
2022/05/05 12:19:46;;;;;;;19.45;13.20;;;19.80;99.90;;;;;;5051804;28;20033;-73
2022/05/05 12:22:12;;;;;;;20.73;13.32;;;19.50;99.80;;;;;;5052557;28;20034;-74
2022/05/05 12:24:45;;;;;;;18.40;11.85;;;19.70;99.80;;;;;;5035690;28;20099;-73
2022/05/05 12:27:11;;;;;;;16.85;12.52;;;20.00;99.40;;;;;;5046665;28;20037;-73
2022/05/05 12:29:42;;;;;;;18.85;12.35;;;20.20;98.70;;;;;;5051686;28;20082;-74
2022/05/05 12:32:18;;;;;;;21.55;14.20;;;20.10;99.20;;;;;;5044940;28;20036;-73
2022/05/05 12:34:45;;;;;;;22.60;17.02;;;20.30;99.60;;;;;;5051064;28;20017;-73
2022/05/05 12:37:20;;;;;;;24.20;15.68;;;20.40;99.90;;;;;;5051343;28;20090;-73
2022/05/05 12:40:01;;;;;;;24.92;17.27;;;20.10;99.90;;;;;;5050947;28;20477;-74
2022/05/05 12:43:05;;;;;;;24.92;15.85;;;20.00;99.90;;;;;;5051558;28;20029;-73
2022/05/05 12:45:32;;;;;;;26.92;16.10;;;20.10;99.90;;;;;;5043219;28;20072;-73
2022/05/05 12:48:00;;;;;;;22.20;15.95;;;20.20;99.90;;;;;;5051274;28;20428;-74
2022/05/05 12:50:41;;;;;;;23.90;15.27;;;20.00;99.90;;;;;;5036289;28;20035;-73
2022/05/05 13:01:46;;;;;;;23.55;15.52;;;19.60;99.90;;;;;;5043974;28;20034;-73
2022/05/05 13:04:15;;;;;;;22.38;15.55;;;20.10;99.90;;;;;;5047557;28;20108;-73
2022/05/05 13:06:45;;;;;;;19.67;15.50;;;21.20;99.50;;;;;;5046242;28;20045;-73
2022/05/05 13:09:11;;;;;;;21.20;14.98;;;21.80;98.60;;;;;;5033935;28;20024;-73
2022/05/05 13:11:38;;;;;;;20.98;15.40;;;21.80;98.70;;;;;;5044026;28;20025;-74
2022/05/05 13:14:04;;;;;;;17.00;12.90;;;22.70;97.10;;;;;;5025308;28;20401;-73
2022/05/05 13:16:31;;;;;;;19.23;14.68;;;23.20;96.60;;;;;;5036965;28;20394;-73
2022/05/05 13:18:58;;;;;;;20.98;14.35;;;22.90;96.90;;;;;;5014038;28;20029;-74
2022/05/05 13:21:28;;;;;;;17.40;12.85;;;22.70;96.70;;;;;;5019629;28;20033;-73
2022/05/05 13:23:54;;;;;;;18.60;12.32;;;22.40;96.70;;;;;;5041727;28;20018;-74
2022/05/05 13:26:20;;;;;;;13.50;10.30;;;22.20;96.30;;;;;;5044642;28;20041;-74